sensor_id;sensor_type;location;lat;lon;timestamp;pressure;altitude;pressure_sealevel;temperature;humidity
20656;BME280;10487;53.320;8.672;2022-12-07T00:01:40;101078.22;;;1.89;64.84
20656;BME280;10487;53.320;8.672;2022-12-07T00:04:42;101075.69;;;1.86;64.86
20656;BME280;10487;53.320;8.672;2022-12-07T00:07:43;101082.75;;;1.84;65.26
20656;BME280;10487;53.320;8.672;2022-12-07T00:10:45;101069.63;;;1.83;65.21
20656;BME280;10487;53.320;8.672;2022-12-07T00:13:50;101068.75;;;1.84;65.04
20656;BME280;10487;53.320;8.672;2022-12-07T00:16:52;101059.13;;;1.83;65.29
20656;BME280;10487;53.320;8.672;2022-12-07T00:19:54;101064.38;;;1.83;65.16
20656;BME280;10487;53.320;8.672;2022-12-07T00:22:55;101068.78;;;1.82;65.13
20656;BME280;10487;53.320;8.672;2022-12-07T00:26:07;101056.53;;;1.81;65.21
20656;BME280;10487;53.320;8.672;2022-12-07T00:29:19;101055.69;;;1.81;65.23
20656;BME280;10487;53.320;8.672;2022-12-07T00:32:21;101060.13;;;1.79;65.00
20656;BME280;10487;53.320;8.672;2022-12-07T00:35:22;101061.03;;;1.78;65.04
20656;BME280;10487;53.320;8.672;2022-12-07T00:38:26;101062.81;;;1.77;65.05
20656;BME280;10487;53.320;8.672;2022-12-07T00:41:29;101068.19;;;1.74;65.19
20656;BME280;10487;53.320;8.672;2022-12-07T00:44:30;101062.06;;;1.74;64.94
20656;BME280;10487;53.320;8.672;2022-12-07T00:47:32;101060.38;;;1.71;64.88
20656;BME280;10487;53.320;8.672;2022-12-07T00:50:34;101064.84;;;1.69;65.08
20656;BME280;10487;53.320;8.672;2022-12-07T00:53:36;101049.09;;;1.68;65.15
20656;BME280;10487;53.320;8.672;2022-12-07T00:56:42;101044.75;;;1.67;65.38
20656;BME280;10487;53.320;8.672;2022-12-07T00:59:43;101052.66;;;1.65;65.53
20656;BME280;10487;53.320;8.672;2022-12-07T01:02:45;101053.53;;;1.66;65.28
20656;BME280;10487;53.320;8.672;2022-12-07T01:05:51;101047.38;;;1.67;65.06
20656;BME280;10487;53.320;8.672;2022-12-07T01:08:54;101044.78;;;1.65;65.05
20656;BME280;10487;53.320;8.672;2022-12-07T01:11:56;101049.22;;;1.63;65.11
20656;BME280;10487;53.320;8.672;2022-12-07T01:14:57;101050.19;;;1.61;65.27
20656;BME280;10487;53.320;8.672;2022-12-07T01:17:59;101050.19;;;1.61;65.19
20656;BME280;10487;53.320;8.672;2022-12-07T01:24:07;101042.34;;;1.59;65.44
20656;BME280;10487;53.320;8.672;2022-12-07T01:27:08;101043.22;;;1.60;65.33
20656;BME280;10487;53.320;8.672;2022-12-07T01:30:11;101027.44;;;1.60;65.19
20656;BME280;10487;53.320;8.672;2022-12-07T01:33:12;101029.25;;;1.58;65.04
20656;BME280;10487;53.320;8.672;2022-12-07T01:39:17;101038.94;;;1.56;65.40
20656;BME280;10487;53.320;8.672;2022-12-07T01:42:19;101040.78;;;1.53;65.31
20656;BME280;10487;53.320;8.672;2022-12-07T01:45:36;101053.06;;;1.53;65.28
20656;BME280;10487;53.320;8.672;2022-12-07T01:48:40;101048.72;;;1.52;65.15
20656;BME280;10487;53.320;8.672;2022-12-07T01:51:43;101049.63;;;1.51;65.25
20656;BME280;10487;53.320;8.672;2022-12-07T01:54:47;101044.38;;;1.51;65.12
20656;BME280;10487;53.320;8.672;2022-12-07T01:57:52;101047.00;;;1.51;65.46
20656;BME280;10487;53.320;8.672;2022-12-07T02:00:54;101049.69;;;1.49;65.16
20656;BME280;10487;53.320;8.672;2022-12-07T02:03:56;101043.50;;;1.50;65.38
20656;BME280;10487;53.320;8.672;2022-12-07T02:06:59;101047.06;;;1.49;65.13
20656;BME280;10487;53.320;8.672;2022-12-07T02:10:20;101041.81;;;1.48;65.51
20656;BME280;10487;53.320;8.672;2022-12-07T02:13:25;101041.88;;;1.46;65.00
20656;BME280;10487;53.320;8.672;2022-12-07T02:17:07;101023.53;;;1.45;65.34
20656;BME280;10487;53.320;8.672;2022-12-07T02:20:30;101031.53;;;1.42;65.04
20656;BME280;10487;53.320;8.672;2022-12-07T02:23:51;101040.38;;;1.39;65.34
20656;BME280;10487;53.320;8.672;2022-12-07T02:30:33;101037.03;;;1.33;65.20
20656;BME280;10487;53.320;8.672;2022-12-07T02:33:41;101030.97;;;1.31;65.27
20656;BME280;10487;53.320;8.672;2022-12-07T02:36:53;101037.19;;;1.28;65.15
20656;BME280;10487;53.320;8.672;2022-12-07T02:40:06;101033.75;;;1.26;65.44
20656;BME280;10487;53.320;8.672;2022-12-07T02:43:14;101039.06;;;1.25;65.13
20656;BME280;10487;53.320;8.672;2022-12-07T02:46:24;101031.19;;;1.25;65.40
20656;BME280;10487;53.320;8.672;2022-12-07T02:49:28;101025.06;;;1.24;65.50
20656;BME280;10487;53.320;8.672;2022-12-07T02:52:30;101024.13;;;1.25;65.42
20656;BME280;10487;53.320;8.672;2022-12-07T02:55:37;101024.97;;;1.27;65.25
20656;BME280;10487;53.320;8.672;2022-12-07T03:08:45;101033.69;;;1.28;65.12
20656;BME280;10487;53.320;8.672;2022-12-07T03:11:58;101033.69;;;1.28;65.37
20656;BME280;10487;53.320;8.672;2022-12-07T03:15:07;101034.56;;;1.28;65.18
20656;BME280;10487;53.320;8.672;2022-12-07T03:18:12;101016.16;;;1.28;65.32
20656;BME280;10487;53.320;8.672;2022-12-07T03:21:20;101006.41;;;1.32;65.36
20656;BME280;10487;53.320;8.672;2022-12-07T03:24:27;101011.63;;;1.33;65.38
20656;BME280;10487;53.320;8.672;2022-12-07T03:27:52;101016.84;;;1.35;65.32
20656;BME280;10487;53.320;8.672;2022-12-07T03:31:03;101021.19;;;1.36;65.12
20656;BME280;10487;53.320;8.672;2022-12-07T03:34:27;101018.53;;;1.36;65.30
20656;BME280;10487;53.320;8.672;2022-12-07T03:37:34;101013.34;;;1.34;65.06
20656;BME280;10487;53.320;8.672;2022-12-07T03:44:01;101013.38;;;1.33;65.37
20656;BME280;10487;53.320;8.672;2022-12-07T03:50:50;101009.94;;;1.31;65.48
20656;BME280;10487;53.320;8.672;2022-12-07T03:57:17;101023.16;;;1.29;65.37
20656;BME280;10487;53.320;8.672;2022-12-07T04:00:19;101009.06;;;1.30;65.20
20656;BME280;10487;53.320;8.672;2022-12-07T04:03:21;101005.63;;;1.30;65.52
20656;BME280;10487;53.320;8.672;2022-12-07T04:06:23;101009.06;;;1.30;65.27
20656;BME280;10487;53.320;8.672;2022-12-07T04:09:25;101005.56;;;1.31;65.46
20656;BME280;10487;53.320;8.672;2022-12-07T04:12:26;100998.53;;;1.32;65.33
20656;BME280;10487;53.320;8.672;2022-12-07T04:15:28;101015.16;;;1.32;65.21
20656;BME280;10487;53.320;8.672;2022-12-07T04:18:30;101009.00;;;1.33;65.31
20656;BME280;10487;53.320;8.672;2022-12-07T04:21:31;101008.03;;;1.36;65.49
20656;BME280;10487;53.320;8.672;2022-12-07T04:24:33;101013.28;;;1.36;65.49
20656;BME280;10487;53.320;8.672;2022-12-07T04:27:35;101015.88;;;1.37;65.23
20656;BME280;10487;53.320;8.672;2022-12-07T04:30:37;101022.91;;;1.37;65.31
20656;BME280;10487;53.320;8.672;2022-12-07T04:33:38;101020.28;;;1.37;65.55
20656;BME280;10487;53.320;8.672;2022-12-07T04:36:40;101005.38;;;1.37;65.38
20656;BME280;10487;53.320;8.672;2022-12-07T04:39:42;101003.63;;;1.36;65.22
20656;BME280;10487;53.320;8.672;2022-12-07T04:42:45;100996.66;;;1.35;65.39
20656;BME280;10487;53.320;8.672;2022-12-07T04:45:47;101000.16;;;1.36;65.22
20656;BME280;10487;53.320;8.672;2022-12-07T04:48:50;100994.00;;;1.37;65.25
20656;BME280;10487;53.320;8.672;2022-12-07T04:51:52;100996.63;;;1.37;65.26
20656;BME280;10487;53.320;8.672;2022-12-07T04:54:53;100994.84;;;1.37;65.41
20656;BME280;10487;53.320;8.672;2022-12-07T04:57:55;100990.50;;;1.36;65.51
20656;BME280;10487;53.320;8.672;2022-12-07T05:00:56;100999.28;;;1.35;65.15
20656;BME280;10487;53.320;8.672;2022-12-07T05:03:58;101002.84;;;1.34;65.14
20656;BME280;10487;53.320;8.672;2022-12-07T05:06:59;101007.22;;;1.34;65.53
20656;BME280;10487;53.320;8.672;2022-12-07T05:10:01;100998.53;;;1.32;65.40
20656;BME280;10487;53.320;8.672;2022-12-07T05:13:03;100988.91;;;1.31;65.23
20656;BME280;10487;53.320;8.672;2022-12-07T05:16:05;100988.09;;;1.29;65.33
20656;BME280;10487;53.320;8.672;2022-12-07T05:19:07;100993.41;;;1.27;65.28
20656;BME280;10487;53.320;8.672;2022-12-07T05:22:09;100993.44;;;1.26;65.20
20656;BME280;10487;53.320;8.672;2022-12-07T05:25:11;100996.13;;;1.24;65.50
20656;BME280;10487;53.320;8.672;2022-12-07T05:28:13;100997.09;;;1.22;65.32
20656;BME280;10487;53.320;8.672;2022-12-07T05:31:14;101002.38;;;1.20;65.44
20656;BME280;10487;53.320;8.672;2022-12-07T05:34:16;101010.31;;;1.19;65.16
20656;BME280;10487;53.320;8.672;2022-12-07T05:37:18;101016.47;;;1.18;65.23
20656;BME280;10487;53.320;8.672;2022-12-07T05:40:19;101015.72;;;1.14;65.37
20656;BME280;10487;53.320;8.672;2022-12-07T05:43:21;101014.06;;;1.12;65.52
20656;BME280;10487;53.320;8.672;2022-12-07T05:46:23;101025.16;;;1.21;65.32
20656;BME280;10487;53.320;8.672;2022-12-07T05:49:24;101019.00;;;1.22;65.21
20656;BME280;10487;53.320;8.672;2022-12-07T05:52:26;101012.81;;;1.23;65.16
20656;BME280;10487;53.320;8.672;2022-12-07T05:55:27;101002.28;;;1.23;65.56
20656;BME280;10487;53.320;8.672;2022-12-07T05:58:29;101003.22;;;1.22;65.13
20656;BME280;10487;53.320;8.672;2022-12-07T06:04:58;100986.59;;;1.20;65.30
20656;BME280;10487;53.320;8.672;2022-12-07T06:07:59;100989.25;;;1.20;65.40
20656;BME280;10487;53.320;8.672;2022-12-07T06:11:06;100993.66;;;1.20;65.34
20656;BME280;10487;53.320;8.672;2022-12-07T06:14:26;100985.72;;;1.21;65.45
20656;BME280;10487;53.320;8.672;2022-12-07T06:17:27;100992.72;;;1.22;65.53
20656;BME280;10487;53.320;8.672;2022-12-07T06:20:29;100991.78;;;1.23;65.36
20656;BME280;10487;53.320;8.672;2022-12-07T06:23:31;100987.38;;;1.24;65.12
20656;BME280;10487;53.320;8.672;2022-12-07T06:26:32;100989.06;;;1.26;65.31
20656;BME280;10487;53.320;8.672;2022-12-07T06:29:34;100998.38;;;1.36;65.85
20656;BME280;10487;53.320;8.672;2022-12-07T06:32:36;100997.41;;;1.67;65.83
20656;BME280;10487;53.320;8.672;2022-12-07T06:35:38;101006.00;;;1.72;65.53
20656;BME280;10487;53.320;8.672;2022-12-07T06:38:40;101008.63;;;1.72;65.21
20656;BME280;10487;53.320;8.672;2022-12-07T06:41:41;101012.16;;;1.71;65.13
20656;BME280;10487;53.320;8.672;2022-12-07T06:44:43;101023.63;;;1.68;65.08
20656;BME280;10487;53.320;8.672;2022-12-07T06:47:45;101014.13;;;1.64;64.95
20656;BME280;10487;53.320;8.672;2022-12-07T06:50:47;101012.50;;;1.60;65.22
20656;BME280;10487;53.320;8.672;2022-12-07T06:53:55;101003.88;;;1.57;65.04
20656;BME280;10487;53.320;8.672;2022-12-07T06:56:57;100996.16;;;1.50;65.26
20656;BME280;10487;53.320;8.672;2022-12-07T06:59:58;101000.69;;;1.45;65.25
20656;BME280;10487;53.320;8.672;2022-12-07T07:03:01;100995.66;;;1.39;65.04
20656;BME280;10487;53.320;8.672;2022-12-07T07:06:03;100995.75;;;1.36;65.04
20656;BME280;10487;53.320;8.672;2022-12-07T07:09:05;101006.41;;;1.32;64.72
20656;BME280;10487;53.320;8.672;2022-12-07T07:12:07;101017.03;;;1.57;64.76
20656;BME280;10487;53.320;8.672;2022-12-07T07:15:09;101011.78;;;1.55;64.94
20656;BME280;10487;53.320;8.672;2022-12-07T07:18:11;101006.59;;;1.53;64.94
20656;BME280;10487;53.320;8.672;2022-12-07T07:21:13;101008.50;;;1.48;64.72
20656;BME280;10487;53.320;8.672;2022-12-07T07:24:14;101020.06;;;1.43;64.84
20656;BME280;10487;53.320;8.672;2022-12-07T07:27:16;101012.41;;;1.35;65.19
20656;BME280;10487;53.320;8.672;2022-12-07T07:30:17;101014.34;;;1.30;64.99
20656;BME280;10487;53.320;8.672;2022-12-07T07:33:19;101020.59;;;1.26;65.05
20656;BME280;10487;53.320;8.672;2022-12-07T07:36:21;101018.06;;;1.23;65.02
20656;BME280;10487;53.320;8.672;2022-12-07T07:39:22;101014.63;;;1.21;65.15
20656;BME280;10487;53.320;8.672;2022-12-07T07:42:24;101014.72;;;1.18;65.02
20656;BME280;10487;53.320;8.672;2022-12-07T07:45:26;101013.09;;;1.14;65.39
20656;BME280;10487;53.320;8.672;2022-12-07T07:48:28;101014.88;;;1.14;65.33
20656;BME280;10487;53.320;8.672;2022-12-07T07:51:30;101004.50;;;1.09;65.34
20656;BME280;10487;53.320;8.672;2022-12-07T07:54:31;101005.44;;;1.07;65.15
20656;BME280;10487;53.320;8.672;2022-12-07T07:57:33;101015.16;;;1.05;65.46
20656;BME280;10487;53.320;8.672;2022-12-07T08:00:34;101018.72;;;1.02;65.41
20656;BME280;10487;53.320;8.672;2022-12-07T08:03:36;101018.81;;;0.99;65.43
20656;BME280;10487;53.320;8.672;2022-12-07T08:06:38;101023.22;;;0.99;65.24
20656;BME280;10487;53.320;8.672;2022-12-07T08:09:39;101028.47;;;0.99;65.11
20656;BME280;10487;53.320;8.672;2022-12-07T08:12:42;101025.03;;;0.97;65.47
20656;BME280;10487;53.320;8.672;2022-12-07T08:16:09;101027.72;;;0.95;65.23
20656;BME280;10487;53.320;8.672;2022-12-07T08:19:11;101021.63;;;0.93;65.16
20656;BME280;10487;53.320;8.672;2022-12-07T08:22:13;101034.75;;;0.93;65.25
20656;BME280;10487;53.320;8.672;2022-12-07T08:25:15;101047.94;;;0.92;65.13
20656;BME280;10487;53.320;8.672;2022-12-07T08:28:16;101043.56;;;0.92;65.46
20656;BME280;10487;53.320;8.672;2022-12-07T08:31:18;101047.09;;;0.91;65.61
20656;BME280;10487;53.320;8.672;2022-12-07T08:34:20;101054.72;;;1.00;65.90
20656;BME280;10487;53.320;8.672;2022-12-07T08:37:22;101051.75;;;1.40;66.57
20656;BME280;10487;53.320;8.672;2022-12-07T08:40:23;101045.09;;;1.56;65.95
20656;BME280;10487;53.320;8.672;2022-12-07T08:43:25;101039.81;;;1.56;65.47
20656;BME280;10487;53.320;8.672;2022-12-07T08:46:38;101047.88;;;1.51;65.25
20656;BME280;10487;53.320;8.672;2022-12-07T08:49:44;101041.88;;;1.46;65.42
20656;BME280;10487;53.320;8.672;2022-12-07T08:52:51;101041.09;;;1.43;65.59
20656;BME280;10487;53.320;8.672;2022-12-07T08:55:55;101048.19;;;1.41;65.60
20656;BME280;10487;53.320;8.672;2022-12-07T08:58:57;101044.75;;;1.39;65.43
20656;BME280;10487;53.320;8.672;2022-12-07T09:01:59;101040.38;;;1.38;65.79
20656;BME280;10487;53.320;8.672;2022-12-07T09:05:02;101036.94;;;1.37;65.24
20656;BME280;10487;53.320;8.672;2022-12-07T09:08:04;101045.66;;;1.38;65.71
20656;BME280;10487;53.320;8.672;2022-12-07T09:11:05;101045.72;;;1.36;65.37
20656;BME280;10487;53.320;8.672;2022-12-07T09:14:07;101036.94;;;1.37;65.51
20656;BME280;10487;53.320;8.672;2022-12-07T09:17:11;101034.28;;;1.37;65.46
20656;BME280;10487;53.320;8.672;2022-12-07T09:20:13;101037.75;;;1.38;65.52
20656;BME280;10487;53.320;8.672;2022-12-07T09:23:15;101035.97;;;1.40;65.56
20656;BME280;10487;53.320;8.672;2022-12-07T09:26:16;101025.44;;;1.40;65.50
20656;BME280;10487;53.320;8.672;2022-12-07T09:29:18;101021.91;;;1.41;65.72
20656;BME280;10487;53.320;8.672;2022-12-07T09:32:19;101019.13;;;1.45;65.61
20656;BME280;10487;53.320;8.672;2022-12-07T09:35:22;101028.66;;;1.49;65.58
20656;BME280;10487;53.320;8.672;2022-12-07T09:38:24;101032.78;;;1.57;65.42
20656;BME280;10487;53.320;8.672;2022-12-07T09:41:29;101032.50;;;1.66;65.57
20656;BME280;10487;53.320;8.672;2022-12-07T09:44:32;101029.53;;;1.76;65.66
20656;BME280;10487;53.320;8.672;2022-12-07T09:47:33;101037.16;;;1.84;65.32
20656;BME280;10487;53.320;8.672;2022-12-07T09:50:35;101056.28;;;1.89;65.50
20656;BME280;10487;53.320;8.672;2022-12-07T09:53:37;101057.03;;;1.92;65.45
20656;BME280;10487;53.320;8.672;2022-12-07T09:56:39;101049.97;;;1.94;65.49
20656;BME280;10487;53.320;8.672;2022-12-07T09:59:41;101042.91;;;1.95;65.44
20656;BME280;10487;53.320;8.672;2022-12-07T10:02:46;101035.03;;;1.95;65.35
20656;BME280;10487;53.320;8.672;2022-12-07T10:05:50;101029.72;;;1.96;65.59
20656;BME280;10487;53.320;8.672;2022-12-07T10:08:53;101032.28;;;1.98;65.28
20656;BME280;10487;53.320;8.672;2022-12-07T10:15:05;101015.50;;;2.02;65.36
20656;BME280;10487;53.320;8.672;2022-12-07T10:21:27;101001.31;;;2.06;65.62
20656;BME280;10487;53.320;8.672;2022-12-07T10:24:29;101014.31;;;2.10;65.50
20656;BME280;10487;53.320;8.672;2022-12-07T10:27:32;101004.59;;;2.12;65.71
20656;BME280;10487;53.320;8.672;2022-12-07T10:30:50;101003.44;;;2.19;65.61
20656;BME280;10487;53.320;8.672;2022-12-07T10:34:01;101008.59;;;2.24;65.83
20656;BME280;10487;53.320;8.672;2022-12-07T10:40:27;100996.22;;;2.26;65.43
20656;BME280;10487;53.320;8.672;2022-12-07T10:43:29;100995.41;;;2.24;65.33
20656;BME280;10487;53.320;8.672;2022-12-07T10:46:36;100987.50;;;2.24;65.64
20656;BME280;10487;53.320;8.672;2022-12-07T10:56:56;100990.25;;;2.21;65.60
20656;BME280;10487;53.320;8.672;2022-12-07T11:03:32;100985.03;;;2.19;65.36
20656;BME280;10487;53.320;8.672;2022-12-07T11:06:48;100982.38;;;2.19;65.43
20656;BME280;10487;53.320;8.672;2022-12-07T11:17:14;100975.31;;;2.22;65.65
20656;BME280;10487;53.320;8.672;2022-12-07T11:23:52;100972.56;;;2.25;65.44
20656;BME280;10487;53.320;8.672;2022-12-07T11:30:19;100968.38;;;2.19;65.25
20656;BME280;10487;53.320;8.672;2022-12-07T11:33:54;100952.72;;;2.14;65.32
20656;BME280;10487;53.320;8.672;2022-12-07T11:37:01;100946.72;;;2.11;65.32
20656;BME280;10487;53.320;8.672;2022-12-07T11:43:32;100950.41;;;2.07;65.59
20656;BME280;10487;53.320;8.672;2022-12-07T11:46:55;100942.59;;;2.04;65.78
20656;BME280;10487;53.320;8.672;2022-12-07T11:56:12;100962.78;;;2.03;65.47
20656;BME280;10487;53.320;8.672;2022-12-07T11:59:22;100964.63;;;2.01;65.72
20656;BME280;10487;53.320;8.672;2022-12-07T12:02:41;100969.94;;;2.00;65.69
20656;BME280;10487;53.320;8.672;2022-12-07T12:05:45;100971.81;;;1.96;65.32
20656;BME280;10487;53.320;8.672;2022-12-07T12:22:47;100936.28;;;1.59;65.74
20656;BME280;10487;53.320;8.672;2022-12-07T12:26:02;100939.78;;;1.59;65.55
20656;BME280;10487;53.320;8.672;2022-12-07T12:29:07;100932.75;;;1.60;65.77
20656;BME280;10487;53.320;8.672;2022-12-07T12:32:22;100930.06;;;1.61;65.38
20656;BME280;10487;53.320;8.672;2022-12-07T12:35:33;100933.47;;;1.65;65.75
20656;BME280;10487;53.320;8.672;2022-12-07T12:42:00;100923.66;;;1.70;65.35
20656;BME280;10487;53.320;8.672;2022-12-07T12:48:29;100926.97;;;1.75;65.48
20656;BME280;10487;53.320;8.672;2022-12-07T12:51:38;100927.00;;;1.73;65.59
20656;BME280;10487;53.320;8.672;2022-12-07T13:08:27;100894.63;;;1.71;65.30
20656;BME280;10487;53.320;8.672;2022-12-07T13:11:39;100891.09;;;1.72;65.46
20656;BME280;10487;53.320;8.672;2022-12-07T13:24:12;100890.72;;;1.83;65.59
20656;BME280;10487;53.320;8.672;2022-12-07T13:27:14;100897.69;;;1.84;65.67
20656;BME280;10487;53.320;8.672;2022-12-07T13:30:20;100903.75;;;1.86;65.36
20656;BME280;10487;53.320;8.672;2022-12-07T13:33:23;100917.72;;;1.88;65.41
20656;BME280;10487;53.320;8.672;2022-12-07T13:36:31;100929.97;;;1.89;65.46
20656;BME280;10487;53.320;8.672;2022-12-07T13:39:46;100935.28;;;1.87;65.46
20656;BME280;10487;53.320;8.672;2022-12-07T13:42:57;100928.34;;;1.85;65.33
20656;BME280;10487;53.320;8.672;2022-12-07T13:45:59;100924.03;;;1.82;65.41
20656;BME280;10487;53.320;8.672;2022-12-07T13:49:02;100921.47;;;1.81;65.55
20656;BME280;10487;53.320;8.672;2022-12-07T13:52:43;100917.69;;;1.89;66.24
20656;BME280;10487;53.320;8.672;2022-12-07T13:55:46;100917.41;;;1.97;65.56
20656;BME280;10487;53.320;8.672;2022-12-07T13:58:55;100917.44;;;1.95;65.75
20656;BME280;10487;53.320;8.672;2022-12-07T14:01:56;100907.09;;;1.91;65.55
20656;BME280;10487;53.320;8.672;2022-12-07T14:11:17;100892.53;;;1.81;65.44
20656;BME280;10487;53.320;8.672;2022-12-07T14:14:23;100898.84;;;1.77;65.33
20656;BME280;10487;53.320;8.672;2022-12-07T14:17:28;100900.66;;;1.75;65.38
20656;BME280;10487;53.320;8.672;2022-12-07T14:23:36;100896.72;;;1.62;65.41
20656;BME280;10487;53.320;8.672;2022-12-07T14:26:39;100892.47;;;1.58;65.64
20656;BME280;10487;53.320;8.672;2022-12-07T14:29:43;100893.44;;;1.55;65.56
20656;BME280;10487;53.320;8.672;2022-12-07T14:32:47;100885.59;;;1.53;65.39
20656;BME280;10487;53.320;8.672;2022-12-07T14:35:51;100877.88;;;1.49;65.53
20656;BME280;10487;53.320;8.672;2022-12-07T14:38:56;100874.44;;;1.47;65.77
20656;BME280;10487;53.320;8.672;2022-12-07T14:42:01;100871.97;;;1.42;65.58
20656;BME280;10487;53.320;8.672;2022-12-07T14:45:02;100867.69;;;1.40;65.63
20656;BME280;10487;53.320;8.672;2022-12-07T14:48:04;100860.75;;;1.37;65.71
20656;BME280;10487;53.320;8.672;2022-12-07T14:51:26;100861.72;;;1.35;65.61
20656;BME280;10487;53.320;8.672;2022-12-07T14:54:48;100868.59;;;1.39;65.85
20656;BME280;10487;53.320;8.672;2022-12-07T14:57:50;100861.31;;;1.95;67.25
20656;BME280;10487;53.320;8.672;2022-12-07T15:00:52;100860.31;;;2.22;66.36
20656;BME280;10487;53.320;8.672;2022-12-07T15:03:54;100866.53;;;2.19;65.64
20656;BME280;10487;53.320;8.672;2022-12-07T15:06:58;100864.25;;;2.10;65.64
20656;BME280;10487;53.320;8.672;2022-12-07T15:10:00;100860.03;;;2.06;65.66
20656;BME280;10487;53.320;8.672;2022-12-07T15:13:02;100871.81;;;1.96;65.29
20656;BME280;10487;53.320;8.672;2022-12-07T15:16:23;100865.47;;;2.25;67.25
20656;BME280;10487;53.320;8.672;2022-12-07T15:19:25;100876.22;;;2.87;67.33
20656;BME280;10487;53.320;8.672;2022-12-07T15:22:30;100872.22;;;3.20;66.67
20656;BME280;10487;53.320;8.672;2022-12-07T15:25:42;100867.81;;;3.42;66.82
20656;BME280;10487;53.320;8.672;2022-12-07T15:28:44;100880.59;;;3.52;65.79
20656;BME280;10487;53.320;8.672;2022-12-07T15:31:48;100875.91;;;3.38;65.46
20656;BME280;10487;53.320;8.672;2022-12-07T15:34:58;100882.97;;;3.16;65.07
20656;BME280;10487;53.320;8.672;2022-12-07T15:38:00;100871.44;;;2.97;65.17
20656;BME280;10487;53.320;8.672;2022-12-07T15:41:02;100880.09;;;2.78;65.00
20656;BME280;10487;53.320;8.672;2022-12-07T15:44:04;100903.44;;;2.64;64.99
20656;BME280;10487;53.320;8.672;2022-12-07T15:47:33;100901.66;;;2.43;65.08
20656;BME280;10487;53.320;8.672;2022-12-07T15:51:05;100888.25;;;2.26;65.08
20656;BME280;10487;53.320;8.672;2022-12-07T15:54:11;100884.34;;;2.13;65.00
20656;BME280;10487;53.320;8.672;2022-12-07T15:57:13;100886.47;;;2.03;65.37
20656;BME280;10487;53.320;8.672;2022-12-07T16:00:15;100891.13;;;1.95;65.16
20656;BME280;10487;53.320;8.672;2022-12-07T16:03:17;100884.47;;;1.85;65.14
20656;BME280;10487;53.320;8.672;2022-12-07T16:06:19;100876.81;;;1.79;65.42
20656;BME280;10487;53.320;8.672;2022-12-07T16:09:20;100888.41;;;1.74;65.44
20656;BME280;10487;53.320;8.672;2022-12-07T16:12:22;100886.81;;;1.70;65.53
20656;BME280;10487;53.320;8.672;2022-12-07T16:15:24;100883.34;;;1.68;65.32
20656;BME280;10487;53.320;8.672;2022-12-07T16:18:26;100873.69;;;1.68;65.33
20656;BME280;10487;53.320;8.672;2022-12-07T16:21:28;100867.47;;;1.71;65.11
20656;BME280;10487;53.320;8.672;2022-12-07T16:24:30;100863.06;;;1.71;65.01
20656;BME280;10487;53.320;8.672;2022-12-07T16:27:32;100863.94;;;1.72;64.90
20656;BME280;10487;53.320;8.672;2022-12-07T16:30:34;100870.06;;;1.72;64.92
20656;BME280;10487;53.320;8.672;2022-12-07T16:33:36;100870.06;;;1.72;64.94
20656;BME280;10487;53.320;8.672;2022-12-07T16:36:38;100865.63;;;1.73;64.87
20656;BME280;10487;53.320;8.672;2022-12-07T16:40:00;100858.66;;;1.72;64.98
20656;BME280;10487;53.320;8.672;2022-12-07T16:43:02;100855.19;;;1.71;64.75
20656;BME280;10487;53.320;8.672;2022-12-07T16:46:04;100852.72;;;1.67;64.81
20656;BME280;10487;53.320;8.672;2022-12-07T16:49:06;100858.13;;;1.62;64.74
20656;BME280;10487;53.320;8.672;2022-12-07T16:52:08;100856.56;;;1.57;64.97
20656;BME280;10487;53.320;8.672;2022-12-07T16:55:20;100852.31;;;1.52;65.19
20656;BME280;10487;53.320;8.672;2022-12-07T16:58:21;100845.34;;;1.51;64.96
20656;BME280;10487;53.320;8.672;2022-12-07T17:01:23;100837.50;;;1.50;64.93
20656;BME280;10487;53.320;8.672;2022-12-07T17:04:25;100833.16;;;1.49;64.78
20656;BME280;10487;53.320;8.672;2022-12-07T17:07:27;100828.81;;;1.48;64.70
20656;BME280;10487;53.320;8.672;2022-12-07T17:10:28;100829.78;;;1.45;64.89
20656;BME280;10487;53.320;8.672;2022-12-07T17:13:30;100819.38;;;1.42;64.67
20656;BME280;10487;53.320;8.672;2022-12-07T17:16:50;100813.44;;;1.37;64.80
20656;BME280;10487;53.320;8.672;2022-12-07T17:19:51;100814.34;;;1.36;64.71
20656;BME280;10487;53.320;8.672;2022-12-07T17:22:53;100807.84;;;1.46;65.22
20656;BME280;10487;53.320;8.672;2022-12-07T17:25:55;100809.44;;;1.50;65.01
20656;BME280;10487;53.320;8.672;2022-12-07T17:28:57;100816.47;;;1.50;64.67
20656;BME280;10487;53.320;8.672;2022-12-07T17:31:59;100807.84;;;1.46;64.94
20656;BME280;10487;53.320;8.672;2022-12-07T17:35:01;100806.19;;;1.44;64.88
20656;BME280;10487;53.320;8.672;2022-12-07T17:38:02;100799.25;;;1.41;64.77
20656;BME280;10487;53.320;8.672;2022-12-07T17:41:21;100803.75;;;1.38;64.93
20656;BME280;10487;53.320;8.672;2022-12-07T17:44:42;100810.91;;;1.34;64.52
20656;BME280;10487;53.320;8.672;2022-12-07T17:47:43;100809.28;;;1.30;64.81
20656;BME280;10487;53.320;8.672;2022-12-07T17:50:45;100808.47;;;1.28;64.52
20656;BME280;10487;53.320;8.672;2022-12-07T17:54:05;100800.81;;;1.22;64.55
20656;BME280;10487;53.320;8.672;2022-12-07T17:57:06;100802.56;;;1.22;64.68
20656;BME280;10487;53.320;8.672;2022-12-07T18:00:09;100796.50;;;1.20;64.79
20656;BME280;10487;53.320;8.672;2022-12-07T18:03:11;100800.94;;;1.18;64.72
20656;BME280;10487;53.320;8.672;2022-12-07T18:06:13;100793.19;;;1.15;64.80
20656;BME280;10487;53.320;8.672;2022-12-07T18:09:15;100788.91;;;1.12;64.88
20656;BME280;10487;53.320;8.672;2022-12-07T18:12:16;100792.41;;;1.11;64.87
20656;BME280;10487;53.320;8.672;2022-12-07T18:15:18;100793.38;;;1.09;64.93
20656;BME280;10487;53.320;8.672;2022-12-07T18:18:19;100799.50;;;1.09;64.60
20656;BME280;10487;53.320;8.672;2022-12-07T18:21:24;100790.75;;;1.09;64.88
20656;BME280;10487;53.320;8.672;2022-12-07T18:24:25;100786.38;;;1.09;64.76
20656;BME280;10487;53.320;8.672;2022-12-07T18:27:35;100778.47;;;1.09;64.50
20656;BME280;10487;53.320;8.672;2022-12-07T18:30:39;100778.53;;;1.08;64.42